Time;durP1;ratioP1;P1;durP2;ratioP2;P2;SDS_P1;SDS_P2;PMS_P1;PMS_P2;Temp;Humidity;BMP_temperature;BMP_pressure;BME280_temperature;BME280_humidity;BME280_pressure;Samples;Min_cycle;Max_cycle;Signal;HPM_P1;HPM_P2
2022/06/13 00:01:23;;;;;;;9.48;2.28;;;17.30;99.00;;;;;;5042790;28;20058;-84
2022/06/13 00:03:55;;;;;;;6.03;1.75;;;17.20;99.30;;;;;;5043229;28;20169;-84
2022/06/13 00:06:21;;;;;;;;;;;17.20;99.00;;;;;;5041963;28;20041;-84
2022/06/13 00:08:47;;;;;;;5.50;1.88;;;17.10;99.10;;;;;;5058587;28;19909;-83
2022/06/13 00:11:15;;;;;;;10.13;2.20;;;16.90;99.20;;;;;;5057803;28;20663;-85
2022/06/13 00:13:49;;;;;;;10.35;2.15;;;16.80;99.90;;;;;;5056835;28;20394;-85
2022/06/13 00:16:15;;;;;;;10.80;2.47;;;16.60;99.90;;;;;;5060894;28;20031;-84
2022/06/13 00:18:47;;;;;;;8.23;2.13;;;16.50;99.90;;;;;;5067970;28;20025;-86
2022/06/13 00:21:18;;;;;;;4.38;2.28;;;16.50;99.90;;;;;;5049024;28;20512;-86
2022/06/13 00:23:50;;;;;;;5.03;2.20;;;16.50;99.90;;;;;;5061537;28;20063;-84
2022/06/13 00:26:21;;;;;;;7.07;2.53;;;16.40;99.90;;;;;;5049916;28;20397;-86
2022/06/13 00:28:48;;;;;;;4.68;1.98;;;16.40;99.90;;;;;;5037824;28;20124;-86
2022/06/13 00:31:14;;;;;;;6.50;2.08;;;16.30;99.90;;;;;;5054020;28;20413;-84
2022/06/13 00:33:44;;;;;;;5.97;2.28;;;16.30;99.90;;;;;;5038032;28;20036;-85
2022/06/13 00:36:10;;;;;;;7.88;2.22;;;16.30;99.90;;;;;;5054133;28;20021;-86
2022/06/13 00:38:39;;;;;;;4.50;2.10;;;16.30;99.90;;;;;;5037583;28;20040;-83
2022/06/13 00:41:26;;;;;;;8.27;2.42;;;16.30;99.90;;;;;;5048039;28;20540;-85
2022/06/13 00:43:53;;;;;;;7.03;2.47;;;16.40;99.90;;;;;;5039352;28;20021;-84
2022/06/13 00:46:27;;;;;;;6.40;2.20;;;16.30;99.90;;;;;;5039624;28;20017;-85
2022/06/13 00:49:06;;;;;;;8.80;2.08;;;16.30;99.90;;;;;;5039716;28;20044;-86
2022/06/13 00:51:36;;;;;;;8.80;2.30;;;16.30;99.90;;;;;;5054600;28;20513;-84
2022/06/13 00:54:02;;;;;;;9.90;2.50;;;16.20;99.90;;;;;;5050651;28;20139;-85
2022/06/13 00:56:36;;;;;;;7.18;2.30;;;16.20;99.90;;;;;;5058856;28;20040;-87
2022/06/13 00:59:09;;;;;;;9.52;2.63;;;16.20;99.90;;;;;;5052100;28;20094;-84
2022/06/13 01:01:34;;;;;;;6.15;2.75;;;16.10;99.90;;;;;;5033216;28;20033;-82
2022/06/13 01:04:03;;;;;;;11.65;2.80;;;16.10;99.90;;;;;;5049817;28;20031;-83
2022/06/13 01:06:36;;;;;;;9.68;3.00;;;16.00;99.90;;;;;;5049182;28;20029;-85
2022/06/13 01:09:05;;;;;;;9.60;2.25;;;16.00;99.90;;;;;;5051148;28;20037;-82
2022/06/13 01:11:32;;;;;;;8.40;2.17;;;15.90;99.90;;;;;;5037906;28;20494;-85
2022/06/13 01:14:20;;;;;;;9.85;2.72;;;15.70;99.90;;;;;;5067165;28;20037;-84
2022/06/13 01:17:30;;;;;;;9.43;2.67;;;15.60;99.90;;;;;;5034599;28;20080;-82
2022/06/13 01:20:19;;;;;;;7.80;2.40;;;15.50;99.90;;;;;;5050839;28;20440;-85
2022/06/13 01:23:20;;;;;;;6.07;2.35;;;15.50;99.90;;;;;;5033834;28;20076;-84
2022/06/13 01:26:05;;;;;;;7.35;2.60;;;15.40;99.90;;;;;;5052367;28;20086;-83
2022/06/13 01:28:40;;;;;;;6.35;2.50;;;15.30;99.90;;;;;;5052672;28;20052;-83
2022/06/13 01:31:48;;;;;;;6.97;2.50;;;15.20;99.90;;;;;;5052270;28;20040;-85
2022/06/13 01:34:51;;;;;;;7.07;3.35;;;15.10;99.90;;;;;;5034422;28;20029;-83
2022/06/13 01:37:47;;;;;;;7.30;2.38;;;15.00;99.90;;;;;;5035883;28;20041;-83
2022/06/13 01:40:25;;;;;;;10.57;3.00;;;14.90;99.90;;;;;;5053150;28;20112;-83
2022/06/13 01:43:04;;;;;;;6.60;2.50;;;14.70;99.90;;;;;;5035452;28;20066;-84
2022/06/13 01:46:04;;;;;;;10.35;3.10;;;14.60;99.90;;;;;;5052835;28;20064;-83
2022/06/13 01:48:47;;;;;;;8.50;2.70;;;14.50;99.90;;;;;;5035233;28;20036;-83
2022/06/13 01:51:24;;;;;;;9.02;2.80;;;14.30;99.90;;;;;;5035016;28;20051;-83
2022/06/13 01:54:08;;;;;;;11.38;2.72;;;14.30;99.90;;;;;;5050675;28;20560;-86
2022/06/13 01:56:43;;;;;;;10.18;2.80;;;14.10;99.90;;;;;;5052140;28;20040;-84
2022/06/13 02:00:02;;;;;;;6.93;2.40;;;14.10;99.90;;;;;;5053448;28;20029;-84
2022/06/13 02:02:48;;;;;;;7.25;3.33;;;14.10;99.90;;;;;;5011565;28;20065;-84
2022/06/13 02:05:23;;;;;;;13.57;3.05;;;14.00;99.90;;;;;;5011163;28;20144;-83
2022/06/13 02:07:57;;;;;;;11.63;2.75;;;13.90;99.90;;;;;;5044172;28;20052;-86
2022/06/13 02:10:35;;;;;;;12.82;3.25;;;13.80;99.90;;;;;;5052146;28;20029;-85
2022/06/13 02:13:12;;;;;;;9.60;3.42;;;13.80;99.90;;;;;;5051798;28;20044;-84
2022/06/13 02:15:49;;;;;;;12.82;3.33;;;13.70;99.90;;;;;;5051930;28;20086;-84
2022/06/13 02:18:52;;;;;;;7.55;2.75;;;13.70;99.90;;;;;;5035507;28;20033;-84
2022/06/13 02:21:21;;;;;;;11.65;2.75;;;13.70;99.90;;;;;;5028740;28;20089;-83
2022/06/13 02:23:57;;;;;;;12.38;2.97;;;13.80;99.90;;;;;;5051781;28;20065;-83
2022/06/13 02:26:29;;;;;;;8.25;3.03;;;13.70;99.90;;;;;;5035666;28;20043;-83
2022/06/13 02:29:01;;;;;;;8.85;3.30;;;13.80;99.90;;;;;;5053386;28;20048;-86
2022/06/13 02:31:42;;;;;;;10.63;3.35;;;13.80;99.90;;;;;;5053207;28;20040;-84
2022/06/13 02:34:34;;;;;;;5.57;2.75;;;13.80;99.90;;;;;;5053861;28;20537;-83
2022/06/13 02:37:27;;;;;;;9.05;3.13;;;13.70;99.90;;;;;;5036052;28;20134;-83
2022/06/13 02:40:12;;;;;;;13.02;3.45;;;13.60;99.90;;;;;;5035078;28;20116;-84
2022/06/13 02:42:51;;;;;;;7.50;3.22;;;13.50;99.90;;;;;;5051969;28;20029;-84
2022/06/13 02:45:45;;;;;;;9.10;2.95;;;13.50;99.90;;;;;;5035273;28;20056;-82
2022/06/13 02:48:17;;;;;;;9.80;3.22;;;13.40;99.90;;;;;;5053390;28;20032;-83
2022/06/13 02:50:52;;;;;;;;;;;13.30;99.90;;;;;;5035545;28;20453;-86
2022/06/13 02:53:27;;;;;;;13.90;3.72;;;13.30;99.90;;;;;;5035021;28;19954;-83
2022/06/13 02:56:32;;;;;;;11.30;3.40;;;13.30;99.90;;;;;;5034830;28;20445;-86
2022/06/13 02:59:31;;;;;;;10.40;3.00;;;13.30;99.90;;;;;;5053596;28;20478;-85
2022/06/13 03:02:07;;;;;;;8.77;3.22;;;13.30;99.90;;;;;;5035216;28;20044;-84
2022/06/13 03:04:43;;;;;;;11.07;3.40;;;13.20;99.90;;;;;;5051760;28;20036;-83
2022/06/13 03:07:26;;;;;;;11.80;3.90;;;13.20;99.90;;;;;;5052387;28;20056;-85
2022/06/13 03:10:01;;;;;;;11.50;3.38;;;13.10;99.90;;;;;;5051657;28;20479;-85
2022/06/13 03:12:58;;;;;;;6.80;3.72;;;13.10;99.90;;;;;;5051636;28;20481;-86
2022/06/13 03:15:44;;;;;;;12.95;4.10;;;13.00;99.90;;;;;;5052044;28;20033;-85
2022/06/13 03:18:31;;;;;;;9.07;3.00;;;13.00;99.90;;;;;;5035446;28;20064;-84
2022/06/13 03:21:46;;;;;;;8.65;3.75;;;13.00;99.90;;;;;;5045258;28;20029;-83
2022/06/13 03:24:21;;;;;;;8.82;3.28;;;13.00;99.90;;;;;;5002308;28;20049;-85
2022/06/13 03:26:54;;;;;;;18.00;3.90;;;13.00;99.90;;;;;;5033278;28;20040;-84
2022/06/13 03:29:27;;;;;;;10.18;4.00;;;12.90;99.90;;;;;;5015095;28;20038;-86
2022/06/13 03:32:08;;;;;;;11.13;3.72;;;12.90;99.90;;;;;;5032211;28;20033;-83
2022/06/13 03:34:39;;;;;;;15.77;3.88;;;12.80;99.90;;;;;;5015697;28;20029;-83
2022/06/13 03:37:12;;;;;;;12.82;4.18;;;12.80;99.90;;;;;;5015757;28;20026;-84
2022/06/13 03:39:45;;;;;;;10.77;3.80;;;12.80;99.90;;;;;;5045469;28;20037;-82
2022/06/13 03:42:33;;;;;;;10.48;3.28;;;12.70;99.90;;;;;;5026807;28;20067;-85
2022/06/13 03:45:16;;;;;;;11.70;3.72;;;12.70;99.90;;;;;;5039338;28;20030;-84
2022/06/13 03:47:56;;;;;;;14.50;3.10;;;12.70;99.90;;;;;;5033954;28;20029;-85
2022/06/13 03:50:29;;;;;;;10.60;3.75;;;12.70;99.90;;;;;;5035320;28;20038;-84
2022/06/13 03:53:15;;;;;;;11.98;3.63;;;12.80;99.90;;;;;;5034137;28;20041;-84
2022/06/13 03:56:08;;;;;;;7.60;3.53;;;12.90;99.90;;;;;;5033502;28;20032;-84
2022/06/13 03:58:40;;;;;;;13.18;3.50;;;12.90;99.90;;;;;;5020035;28;20075;-84
2022/06/13 04:01:19;;;;;;;12.65;3.65;;;12.90;99.90;;;;;;5020326;28;20038;-84
2022/06/13 04:03:45;;;;;;;9.27;3.65;;;12.90;99.90;;;;;;5020162;28;20490;-83
2022/06/13 04:06:30;;;;;;;9.48;3.17;;;13.00;99.90;;;;;;5036283;28;20128;-82
2022/06/13 04:08:57;;;;;;;11.10;3.28;;;13.00;99.90;;;;;;5036318;28;20038;-83
2022/06/13 04:11:59;;;;;;;13.73;3.13;;;13.10;99.90;;;;;;5019458;28;20021;-85
2022/06/13 04:14:31;;;;;;;16.08;4.00;;;13.10;99.90;;;;;;5017237;28;20099;-84
2022/06/13 04:17:13;;;;;;;9.25;3.17;;;13.10;99.90;;;;;;5019467;28;20030;-84
2022/06/13 04:19:45;;;;;;;9.25;3.05;;;13.10;99.90;;;;;;5019413;28;20044;-83
2022/06/13 04:23:05;;;;;;;12.05;3.55;;;13.10;99.90;;;;;;5035600;28;20052;-83
2022/06/13 04:26:25;;;;;;;12.95;3.65;;;13.10;99.90;;;;;;4979015;28;20030;-83
2022/06/13 04:29:05;;;;;;;9.52;3.05;;;13.20;99.90;;;;;;4956096;28;20043;-84
2022/06/13 04:31:35;;;;;;;12.65;4.30;;;13.20;99.90;;;;;;5018929;28;20037;-86
2022/06/13 04:34:15;;;;;;;12.10;3.17;;;13.20;99.90;;;;;;5030636;28;20049;-85
2022/06/13 04:36:43;;;;;;;9.45;3.58;;;13.30;99.90;;;;;;5016554;28;20122;-84
2022/06/13 04:39:15;;;;;;;6.97;3.75;;;13.30;99.90;;;;;;5032470;28;20037;-86
2022/06/13 04:41:45;;;;;;;12.63;3.58;;;13.30;99.90;;;;;;5032199;28;20087;-83
2022/06/13 04:44:18;;;;;;;8.57;3.30;;;13.30;99.90;;;;;;5017167;28;20032;-84
2022/06/13 04:46:46;;;;;;;12.73;4.00;;;13.40;99.90;;;;;;5016652;28;20026;-83
2022/06/13 04:49:30;;;;;;;12.35;3.60;;;13.40;99.90;;;;;;5033689;28;20021;-83
2022/06/13 04:51:59;;;;;;;17.33;3.75;;;13.50;99.90;;;;;;5034340;28;20117;-84
2022/06/13 04:54:37;;;;;;;9.32;3.70;;;13.60;99.90;;;;;;5033982;28;20823;-86
2022/06/13 04:57:04;;;;;;;11.48;4.07;;;13.70;99.90;;;;;;5017950;28;20041;-84
2022/06/13 04:59:30;;;;;;;10.35;3.30;;;13.80;99.90;;;;;;5036406;28;20037;-85
2022/06/13 05:01:57;;;;;;;8.88;3.33;;;13.90;99.90;;;;;;5022201;28;20493;-84
2022/06/13 05:04:29;;;;;;;8.45;3.28;;;14.00;99.90;;;;;;5044364;28;20078;-83
2022/06/13 05:07:05;;;;;;;9.85;3.15;;;14.00;99.90;;;;;;5055095;28;20087;-84
2022/06/13 05:09:35;;;;;;;16.55;3.92;;;14.10;99.90;;;;;;5051767;28;20040;-84
2022/06/13 05:12:26;;;;;;;8.07;3.28;;;14.20;99.90;;;;;;5052489;28;20029;-84
2022/06/13 05:15:04;;;;;;;10.38;3.10;;;14.20;99.90;;;;;;5052924;28;20020;-82
2022/06/13 05:17:51;;;;;;;7.80;3.33;;;14.20;99.90;;;;;;5053520;28;20025;-83
2022/06/13 05:20:53;;;;;;;11.45;3.35;;;14.20;99.90;;;;;;5040680;28;20029;-84
2022/06/13 05:23:25;;;;;;;8.77;3.67;;;14.20;99.90;;;;;;5067664;28;20029;-85
2022/06/13 05:25:55;;;;;;;12.13;3.25;;;14.20;99.90;;;;;;5058300;28;20012;-85
2022/06/13 05:28:27;;;;;;;7.70;3.20;;;14.20;99.90;;;;;;5055088;28;20032;-85
2022/06/13 05:30:55;;;;;;;17.63;5.43;;;14.20;99.90;;;;;;5055572;28;20037;-83
2022/06/13 05:33:29;;;;;;;11.90;3.92;;;14.30;99.90;;;;;;5037378;28;20014;-83
2022/06/13 05:35:57;;;;;;;15.10;3.42;;;14.30;99.90;;;;;;5056965;28;20067;-83
2022/06/13 05:38:34;;;;;;;8.20;3.20;;;14.40;99.90;;;;;;5057408;28;20025;-85
2022/06/13 05:41:00;;;;;;;12.93;3.50;;;14.40;99.90;;;;;;5057613;28;20044;-86
2022/06/13 05:43:26;;;;;;;7.32;2.97;;;14.50;99.90;;;;;;5038822;28;20031;-85
2022/06/13 05:45:52;;;;;;;7.03;2.95;;;14.50;99.90;;;;;;5056004;28;20040;-86
2022/06/13 05:48:26;;;;;;;8.13;3.15;;;14.50;99.90;;;;;;5056526;28;20033;-85
2022/06/13 05:50:52;;;;;;;12.02;3.03;;;14.50;99.90;;;;;;5055798;28;20028;-83
2022/06/13 05:53:22;;;;;;;11.20;3.45;;;14.70;99.90;;;;;;5038201;28;20729;-84
2022/06/13 05:55:49;;;;;;;10.18;3.50;;;14.80;99.90;;;;;;5055279;28;20028;-85
2022/06/13 05:58:16;;;;;;;8.05;2.72;;;15.00;99.90;;;;;;5054045;28;20189;-84
2022/06/13 06:00:45;;;;;;;11.52;3.20;;;15.10;99.90;;;;;;5055443;28;20028;-83
2022/06/13 06:03:11;;;;;;;9.98;3.08;;;15.30;99.90;;;;;;5054112;28;20025;-84
2022/06/13 06:05:40;;;;;;;7.47;3.28;;;15.40;99.90;;;;;;5056237;28;20409;-85
2022/06/13 06:08:12;;;;;;;9.10;4.18;;;15.50;99.90;;;;;;5055515;28;20033;-84
2022/06/13 06:10:42;;;;;;;13.02;3.42;;;15.70;99.90;;;;;;5054511;28;20033;-86
2022/06/13 06:13:09;;;;;;;11.38;2.95;;;15.80;99.90;;;;;;5056448;28;20028;-84
2022/06/13 06:15:34;;;;;;;9.23;3.13;;;15.70;99.90;;;;;;5055005;28;20025;-85
2022/06/13 06:18:00;;;;;;;11.15;2.63;;;15.70;99.90;;;;;;5038183;28;20497;-86
2022/06/13 06:20:26;;;;;;;5.53;2.53;;;15.80;99.90;;;;;;5053788;28;20048;-84
2022/06/13 06:22:51;;;;;;;11.45;2.70;;;15.70;99.90;;;;;;5054378;28;20079;-83
2022/06/13 06:25:20;;;;;;;5.13;2.38;;;15.80;99.90;;;;;;5053689;28;20033;-86
2022/06/13 06:27:45;;;;;;;7.80;3.15;;;15.80;99.90;;;;;;5053812;28;20033;-83
2022/06/13 06:30:15;;;;;;;13.82;4.03;;;15.70;99.90;;;;;;5054177;28;20231;-84
2022/06/13 06:32:41;;;;;;;14.60;3.28;;;15.70;99.90;;;;;;5054606;28;20033;-83
2022/06/13 06:35:07;;;;;;;5.25;2.72;;;15.70;99.90;;;;;;5054319;28;20027;-85
2022/06/13 06:37:33;;;;;;;9.65;2.85;;;15.80;99.90;;;;;;5046030;28;20021;-85
2022/06/13 06:39:58;;;;;;;8.27;3.03;;;15.80;99.90;;;;;;5054557;28;20027;-86
2022/06/13 06:42:24;;;;;;;7.90;3.15;;;15.80;99.90;;;;;;5054687;28;20096;-84
2022/06/13 06:44:50;;;;;;;10.30;2.78;;;15.70;99.90;;;;;;5055658;28;20056;-85
2022/06/13 06:47:16;;;;;;;9.90;3.17;;;15.70;99.90;;;;;;5058282;28;20035;-84
2022/06/13 06:49:41;;;;;;;11.05;2.97;;;15.80;99.90;;;;;;5057534;28;20037;-83
2022/06/13 06:52:07;;;;;;;15.43;3.20;;;15.80;99.90;;;;;;5060856;28;20079;-84
2022/06/13 07:00:06;;;;;;;9.30;2.88;;;16.00;99.90;;;;;;5058245;28;20033;-85
2022/06/13 07:02:32;;;;;;;5.93;2.72;;;16.00;99.90;;;;;;5057515;28;20483;-84
2022/06/13 07:05:05;;;;;;;8.57;3.00;;;16.10;99.90;;;;;;5056767;28;20033;-86
2022/06/13 07:07:34;;;;;;;13.82;3.65;;;16.10;99.90;;;;;;5040543;28;20036;-85
2022/06/13 07:09:59;;;;;;;11.77;3.33;;;16.20;99.90;;;;;;5055702;28;20025;-85
2022/06/13 07:12:25;;;;;;;6.32;3.30;;;16.70;99.90;;;;;;5060594;28;20060;-87
2022/06/13 07:14:51;;;;;;;9.38;2.55;;;17.60;99.90;;;;;;5074557;28;20029;-91
2022/06/13 07:17:17;;;;;;;7.60;3.42;;;18.80;99.90;;;;;;5060159;28;20029;-83
2022/06/13 07:19:46;;;;;;;8.63;2.50;;;19.80;99.90;;;;;;5035748;28;20442;-84
2022/06/13 07:22:16;;;;;;;6.78;2.42;;;20.60;99.90;;;;;;5051843;28;20037;-82
2022/06/13 07:24:43;;;;;;;8.48;2.53;;;21.60;99.90;;;;;;5033692;28;20036;-82
2022/06/13 07:27:09;;;;;;;5.85;2.38;;;21.40;99.90;;;;;;5051127;28;20032;-84
2022/06/13 07:29:35;;;;;;;8.27;2.25;;;21.70;99.90;;;;;;5052749;28;20099;-84
2022/06/13 07:32:22;;;;;;;7.45;2.53;;;22.80;99.90;;;;;;5053938;28;20490;-83
2022/06/13 07:34:50;;;;;;;7.28;2.55;;;23.10;97.60;;;;;;5055603;28;20029;-82
2022/06/13 07:40:06;;;;;;;7.85;3.17;;;22.60;96.50;;;;;;5056505;28;20036;-83
2022/06/13 07:42:40;;;;;;;8.35;2.53;;;21.10;96.60;;;;;;5055213;28;20060;-83
2022/06/13 07:45:11;;;;;;;6.13;2.28;;;19.60;98.70;;;;;;5055930;28;20580;-82
2022/06/13 07:47:37;;;;;;;7.28;2.65;;;18.70;99.90;;;;;;5056136;28;20039;-82
2022/06/13 07:50:02;;;;;;;6.82;2.50;;;18.20;99.90;;;;;;5056667;28;20025;-83
2022/06/13 07:52:31;;;;;;;7.20;2.65;;;17.90;99.90;;;;;;5058171;28;20371;-82
2022/06/13 07:54:57;;;;;;;8.27;3.15;;;17.60;99.90;;;;;;5071439;28;20032;-88
2022/06/13 07:57:22;;;;;;;8.70;2.65;;;17.60;99.90;;;;;;5059041;28;20025;-82
2022/06/13 07:59:48;;;;;;;7.93;2.60;;;18.20;99.90;;;;;;5057885;28;20151;-82
2022/06/13 08:02:17;;;;;;;8.95;3.03;;;18.90;99.90;;;;;;5055811;28;20029;-85
2022/06/13 08:04:43;;;;;;;12.32;2.72;;;20.30;99.90;;;;;;5056148;28;20040;-85
2022/06/13 08:07:15;;;;;;;8.90;2.63;;;21.20;99.60;;;;;;5055222;28;20131;-82
2022/06/13 08:09:43;;;;;;;16.65;3.00;;;22.20;98.00;;;;;;5056406;28;20025;-82
2022/06/13 08:12:10;;;;;;;6.60;2.33;;;22.90;95.60;;;;;;5057809;28;20033;-85
2022/06/13 08:14:36;;;;;;;8.13;2.30;;;23.50;94.50;;;;;;5039311;28;20106;-84
2022/06/13 08:17:02;;;;;;;9.18;3.20;;;23.70;93.80;;;;;;5055954;28;20398;-83
2022/06/13 08:19:28;;;;;;;6.22;2.53;;;23.90;92.30;;;;;;5057714;28;20052;-84
2022/06/13 08:21:56;;;;;;;9.18;2.50;;;23.10;92.70;;;;;;5064490;28;20798;-84
2022/06/13 08:24:22;;;;;;;11.93;2.58;;;23.10;92.50;;;;;;5042122;28;20143;-84
2022/06/13 08:26:47;;;;;;;5.22;2.10;;;23.30;91.50;;;;;;5041989;28;20058;-87
2022/06/13 08:29:13;;;;;;;6.20;2.17;;;23.40;90.40;;;;;;5058938;28;20029;-84
2022/06/13 08:31:39;;;;;;;12.27;2.97;;;23.60;89.80;;;;;;5041158;28;20032;-85
2022/06/13 08:34:05;;;;;;;3.95;2.08;;;23.50;87.50;;;;;;5042030;28;20047;-83
2022/06/13 08:36:38;;;;;;;9.05;2.53;;;23.80;85.60;;;;;;5041716;28;20033;-85
2022/06/13 08:39:04;;;;;;;5.55;2.33;;;23.80;86.40;;;;;;5058708;28;20040;-84
2022/06/13 08:41:30;;;;;;;13.88;3.60;;;24.30;85.60;;;;;;5059000;28;20184;-84
2022/06/13 08:44:33;;;;;;;11.60;2.13;;;24.60;83.20;;;;;;5057419;28;20033;-85
2022/06/13 08:47:16;;;;;;;6.70;2.63;;;24.30;84.20;;;;;;5040640;28;20137;-85
2022/06/13 08:50:15;;;;;;;9.45;2.85;;;23.00;84.80;;;;;;5040821;28;20147;-83
2022/06/13 08:52:55;;;;;;;8.60;2.10;;;22.60;84.00;;;;;;5056956;28;20139;-84
2022/06/13 08:55:47;;;;;;;5.57;2.33;;;22.90;80.80;;;;;;5058018;28;20029;-86
2022/06/13 08:58:28;;;;;;;13.63;3.20;;;23.50;82.40;;;;;;5061075;28;20387;-84
2022/06/13 09:01:22;;;;;;;4.05;2.25;;;23.20;81.50;;;;;;5041826;28;20643;-86
2022/06/13 09:04:09;;;;;;;9.60;2.35;;;23.70;81.20;;;;;;5065477;28;20017;-86
2022/06/13 09:06:43;;;;;;;5.47;1.65;;;23.40;82.90;;;;;;5073731;28;20040;-87
2022/06/13 09:09:17;;;;;;;4.85;1.95;;;23.00;73.80;;;;;;5045788;28;20036;-82
2022/06/13 09:11:48;;;;;;;5.85;2.65;;;23.20;73.60;;;;;;5061609;28;20097;-86
2022/06/13 09:14:36;;;;;;;4.25;1.80;;;23.40;78.70;;;;;;5062935;28;20025;-86
2022/06/13 09:17:12;;;;;;;5.22;2.15;;;23.90;75.50;;;;;;5046700;28;20059;-85
2022/06/13 09:19:49;;;;;;;5.55;1.92;;;23.90;76.30;;;;;;5043597;28;20098;-84
2022/06/13 09:22:43;;;;;;;5.00;2.00;;;23.80;76.30;;;;;;5063474;28;20067;-84
2022/06/13 09:25:16;;;;;;;5.38;2.10;;;23.30;75.90;;;;;;5047184;28;20033;-85
2022/06/13 09:27:48;;;;;;;9.45;2.03;;;23.20;74.90;;;;;;5058671;28;20060;-84
2022/06/13 09:30:20;;;;;;;10.20;2.28;;;23.10;73.40;;;;;;5041642;28;20036;-85
2022/06/13 09:32:54;;;;;;;8.75;2.53;;;22.70;73.30;;;;;;5055985;28;20043;-86
2022/06/13 09:35:45;;;;;;;5.72;1.70;;;22.50;74.30;;;;;;5061729;28;20055;-85
2022/06/13 09:38:31;;;;;;;4.15;1.80;;;22.60;72.60;;;;;;5037007;28;20045;-87
2022/06/13 09:41:29;;;;;;;4.28;2.17;;;23.30;73.20;;;;;;5038176;28;20029;-84
2022/06/13 09:44:05;;;;;;;6.63;2.25;;;24.00;73.80;;;;;;5014357;28;20064;-86
2022/06/13 09:46:39;;;;;;;8.23;2.63;;;23.60;75.30;;;;;;5031527;28;20037;-85
2022/06/13 09:49:18;;;;;;;4.32;2.55;;;23.40;76.10;;;;;;5051855;28;20056;-85
2022/06/13 09:51:58;;;;;;;9.18;2.20;;;24.10;76.00;;;;;;5051143;28;20037;-86
2022/06/13 09:54:27;;;;;;;9.30;2.65;;;24.20;75.20;;;;;;5050367;28;20437;-85
2022/06/13 09:57:16;;;;;;;10.57;2.50;;;24.10;75.60;;;;;;5051732;28;20040;-85
2022/06/13 09:59:57;;;;;;;8.98;2.20;;;23.60;75.40;;;;;;5033880;28;20065;-84
2022/06/13 10:02:38;;;;;;;7.00;2.00;;;22.20;78.70;;;;;;5049856;28;20041;-84
2022/06/13 10:05:12;;;;;;;;;;;21.00;83.10;;;;;;5049079;28;20040;-83
2022/06/13 10:07:51;;;;;;;6.43;2.03;;;20.40;83.10;;;;;;5033016;28;19904;-84
2022/06/13 10:10:33;;;;;;;7.20;2.13;;;20.70;84.30;;;;;;5049245;28;20044;-86
2022/06/13 10:13:02;;;;;;;9.63;2.13;;;21.10;82.10;;;;;;5048956;28;20059;-87
2022/06/13 10:15:40;;;;;;;6.70;2.25;;;20.70;79.60;;;;;;5048914;28;20061;-84
2022/06/13 10:18:24;;;;;;;4.32;2.05;;;21.40;79.20;;;;;;5033932;28;20032;-84
2022/06/13 10:20:58;;;;;;;5.80;1.88;;;22.30;77.80;;;;;;5050153;28;20040;-85
2022/06/13 10:23:43;;;;;;;4.57;2.45;;;22.80;75.00;;;;;;5032859;28;20033;-83
2022/06/13 10:26:29;;;;;;;6.75;2.15;;;23.00;72.90;;;;;;5050463;28;20037;-87
2022/06/13 10:29:10;;;;;;;7.05;2.33;;;23.00;75.20;;;;;;5049038;28;20263;-84
2022/06/13 10:31:54;;;;;;;6.10;2.20;;;22.90;76.70;;;;;;5049675;28;20033;-87
2022/06/13 10:34:31;;;;;;;11.57;2.15;;;22.60;75.70;;;;;;5034977;28;20045;-86
2022/06/13 10:37:16;;;;;;;7.88;2.35;;;22.40;76.10;;;;;;5049978;28;20036;-84
2022/06/13 10:39:43;;;;;;;8.32;2.42;;;22.30;75.80;;;;;;5050958;28;20033;-83
2022/06/13 10:42:18;;;;;;;5.93;2.03;;;22.20;77.10;;;;;;5051628;28;20081;-84
2022/06/13 10:44:44;;;;;;;7.78;3.35;;;22.50;76.80;;;;;;5050649;28;20029;-83
2022/06/13 10:47:32;;;;;;;5.60;2.08;;;22.10;78.50;;;;;;5033448;28;20081;-82
2022/06/13 10:50:02;;;;;;;9.38;3.55;;;22.20;77.40;;;;;;5033908;28;20029;-85
2022/06/13 10:52:43;;;;;;;6.18;3.05;;;22.40;78.60;;;;;;5048331;28;20026;-86
2022/06/13 10:55:12;;;;;;;10.18;2.40;;;22.70;73.30;;;;;;5050466;28;20047;-83
2022/06/13 10:57:43;;;;;;;4.00;2.05;;;22.90;71.80;;;;;;5049411;28;20057;-86
2022/06/13 11:00:14;;;;;;;6.72;2.08;;;22.90;72.90;;;;;;5050709;28;20029;-85
2022/06/13 11:02:40;;;;;;;;;;;22.90;74.00;;;;;;5048996;28;20041;-85
2022/06/13 11:05:08;;;;;;;8.88;3.00;;;22.30;74.10;;;;;;5050984;28;20003;-85
2022/06/13 11:07:49;;;;;;;10.48;2.35;;;22.60;74.00;;;;;;5056305;28;20037;-84
2022/06/13 11:10:30;;;;;;;7.32;2.33;;;22.40;73.30;;;;;;5056948;28;20086;-88
2022/06/13 11:12:58;;;;;;;8.00;2.00;;;23.00;75.90;;;;;;5064207;28;20448;-84
2022/06/13 11:24:15;;;;;;;6.72;2.42;;;23.20;70.00;;;;;;5015724;28;20504;-84
2022/06/13 11:29:35;;;;;;;9.45;2.20;;;22.10;71.70;;;;;;5052637;28;20052;-85
2022/06/13 11:32:04;;;;;;;7.93;2.60;;;21.70;77.00;;;;;;5052653;28;20055;-86
2022/06/13 11:34:39;;;;;;;6.93;2.30;;;22.20;74.70;;;;;;5053061;28;20116;-86
2022/06/13 11:37:14;;;;;;;7.43;2.45;;;22.60;73.80;;;;;;5036132;28;20153;-83
2022/06/13 11:39:42;;;;;;;8.40;2.42;;;22.10;74.80;;;;;;5052401;28;20034;-84
2022/06/13 11:42:22;;;;;;;6.20;2.25;;;22.30;71.60;;;;;;5053184;28;20029;-84
2022/06/13 11:44:57;;;;;;;5.22;1.90;;;22.70;71.90;;;;;;5052894;28;20033;-84
2022/06/13 11:47:23;;;;;;;10.20;2.38;;;23.00;69.50;;;;;;5053611;28;20029;-87
2022/06/13 11:49:57;;;;;;;9.85;2.83;;;22.80;69.00;;;;;;5054664;28;20072;-85
2022/06/13 11:55:29;;;;;;;4.93;1.85;;;23.00;70.70;;;;;;5053105;28;20092;-86
2022/06/13 11:58:01;;;;;;;4.95;1.88;;;23.00;69.00;;;;;;5053360;28;20041;-87
2022/06/13 12:00:37;;;;;;;9.55;2.33;;;22.40;66.30;;;;;;5056594;28;20528;-87
2022/06/13 12:03:14;;;;;;;5.28;2.25;;;22.60;68.50;;;;;;5055043;28;20078;-85
2022/06/13 12:05:40;;;;;;;7.97;1.88;;;22.80;65.40;;;;;;5040185;28;20067;-87
2022/06/13 12:08:15;;;;;;;5.72;1.95;;;23.00;66.20;;;;;;5056035;28;20042;-86
2022/06/13 12:11:06;;;;;;;7.18;1.85;;;23.30;67.20;;;;;;5069062;28;20474;-86
2022/06/13 12:13:37;;;;;;;3.67;1.65;;;23.00;68.60;;;;;;5047616;28;20508;-86
2022/06/13 12:16:24;;;;;;;7.07;2.45;;;23.40;67.60;;;;;;5063590;28;20116;-88
2022/06/13 12:18:59;;;;;;;9.18;2.55;;;23.30;68.30;;;;;;5085272;28;20028;-88
2022/06/13 12:21:39;;;;;;;3.67;2.15;;;22.80;69.00;;;;;;5080096;28;20040;-87
2022/06/13 12:24:18;;;;;;;7.18;2.28;;;22.30;69.60;;;;;;5079683;28;20481;-88
2022/06/13 12:27:06;;;;;;;45.00;23.95;;;22.40;70.40;;;;;;5048178;28;20041;-86
2022/06/13 12:30:16;;;;;;;5.88;2.47;;;22.50;68.20;;;;;;5041711;28;20085;-87
2022/06/13 12:33:02;;;;;;;7.63;2.15;;;22.30;69.40;;;;;;5058632;28;20111;-87
2022/06/13 12:35:40;;;;;;;7.35;1.98;;;21.70;69.80;;;;;;5041784;28;20025;-85
2022/06/13 12:38:43;;;;;;;7.45;2.00;;;21.40;69.50;;;;;;5058176;28;20048;-85
2022/06/13 12:41:18;;;;;;;4.30;1.95;;;21.30;69.20;;;;;;5041893;28;20025;-86
2022/06/13 12:44:17;;;;;;;14.55;2.28;;;21.00;71.90;;;;;;5040797;28;20111;-86
2022/06/13 12:47:01;;;;;;;9.13;2.90;;;20.80;70.90;;;;;;5059599;28;20036;-87
2022/06/13 12:49:47;;;;;;;9.02;2.42;;;20.60;71.80;;;;;;5041936;28;20039;-87
2022/06/13 12:52:21;;;;;;;4.57;1.92;;;20.90;72.70;;;;;;5043047;28;20133;-86
2022/06/13 12:54:51;;;;;;;6.63;2.25;;;22.40;72.60;;;;;;5058173;28;20025;-84
2022/06/13 12:57:39;;;;;;;9.38;2.50;;;23.10;68.20;;;;;;5038481;28;20029;-86
2022/06/13 13:00:20;;;;;;;5.68;2.50;;;23.40;67.40;;;;;;5039108;28;20684;-90
2022/06/13 13:03:30;;;;;;;7.70;2.10;;;23.70;67.20;;;;;;5038853;28;20033;-86
2022/06/13 13:05:58;;;;;;;6.25;2.25;;;24.30;66.10;;;;;;5038148;28;20040;-87
2022/06/13 13:09:07;;;;;;;10.75;2.38;;;24.80;63.50;;;;;;5058173;28;20098;-88
2022/06/13 13:11:52;;;;;;;5.03;2.30;;;24.90;65.20;;;;;;5041882;28;20033;-84
2022/06/13 13:14:36;;;;;;;7.50;2.40;;;25.30;64.40;;;;;;5039423;28;20033;-86
2022/06/13 13:17:02;;;;;;;3.80;1.85;;;25.50;65.30;;;;;;5043580;28;20039;-87
2022/06/13 13:19:50;;;;;;;7.97;2.22;;;25.00;62.50;;;;;;5058784;28;20025;-85
2022/06/13 13:22:37;;;;;;;8.77;2.25;;;24.20;63.00;;;;;;5059060;28;20048;-85
2022/06/13 13:25:21;;;;;;;6.50;2.92;;;24.10;65.40;;;;;;5075154;28;20035;-86
2022/06/13 13:28:23;;;;;;;6.13;2.20;;;24.00;65.20;;;;;;5060645;28;20128;-86
2022/06/13 13:31:03;;;;;;;4.28;2.33;;;24.00;65.20;;;;;;5058463;28;20102;-84
2022/06/13 13:34:20;;;;;;;12.00;1.90;;;23.70;63.70;;;;;;5058944;28;20051;-84
2022/06/13 13:37:21;;;;;;;8.10;2.55;;;23.60;65.20;;;;;;5058470;28;20036;-84
2022/06/13 13:40:07;;;;;;;18.70;2.90;;;23.00;65.40;;;;;;5059049;28;20036;-86
2022/06/13 13:43:07;;;;;;;6.40;2.35;;;23.10;68.20;;;;;;5058625;28;20031;-88
2022/06/13 13:45:49;;;;;;;7.55;2.13;;;23.10;66.70;;;;;;5080726;28;20036;-83
2022/06/13 13:48:28;;;;;;;7.80;2.25;;;22.80;68.10;;;;;;5057593;28;20037;-85
2022/06/13 13:51:09;;;;;;;7.80;2.70;;;23.40;69.20;;;;;;5071806;28;20051;-86
2022/06/13 13:53:46;;;;;;;6.47;2.30;;;25.00;66.80;;;;;;5055170;28;20113;-85
2022/06/13 13:56:48;;;;;;;8.75;2.30;;;25.20;63.30;;;;;;5071114;28;20108;-86
2022/06/13 13:59:17;;;;;;;6.40;2.28;;;24.70;61.80;;;;;;5072003;28;20016;-84